PASY METAR and TAF weather

Enter ICAO airport designator
Station Type Date Time Source
PASY METAR 2019/02/21 10:56 UTC NOAA

PASY 211056Z 19048G60KT 7SM FEW021 BKN034 03/01 A2896 RMK AO2 PK WND 19060/1053 SNE1034 SLP809 RVRNO FZRANO $


Station Type Date Time Source
PASY Decoded METAR 2019/02/21 10:56 UTC NOAA

SHEMYA EARECKSON AS, AK, United States (PASY) 52-43N 174-07E
Feb 21, 2019 - 05:56 AM EST / 2019.02.21 1056 UTC
Wind: from the S (190 degrees) at 55 MPH (48 KT) gusting to 69 MPH (60 KT):1
Visibility: 7 mile(s):0
Sky conditions: mostly cloudy
Temperature: 37 F (3 C)
Dew Point: 33 F (1 C)
Relative Humidity: 86%
Pressure (altimeter): 28.96 in. Hg (980 hPa)
ob: PASY 211056Z 19048G60KT 7SM FEW021 BKN034 03/01 A2896 RMK AO2 PK WND 19060/1053 SNE1034 SLP809 RVRNO FZRANO
cycle: 11

Station Type Date Time Source
PASY TAF 2019/02/21 11:25 UTC NOAA

TAF
AMD PASY 211119Z 2111/2212 19050G60KT 8000 -SN SCT010 BKN020 620208 530005 QNH2895INS
BECMG 2123/2124 23030G40KT 9999 NSW SCT015 BKN025 620258 520005 QNH2917INS TX04/2111Z TNM02/2118Z


Example: see airport list